Time;durP1;ratioP1;P1;durP2;ratioP2;P2;SDS_P1;SDS_P2;PMS_P1;PMS_P2;Temp;Humidity;BMP_temperature;BMP_pressure;BME280_temperature;BME280_humidity;BME280_pressure;Samples;Min_cycle;Max_cycle;Signal;HPM_P1;HPM_P2
2021/08/11 00:00:22;;;;;;;9.65;8.55;;;13.70;99.90;;;;;;4973432;28;20033;-54
2021/08/11 00:02:47;;;;;;;11.02;8.57;;;13.60;99.90;;;;;;4973307;28;20061;-53
2021/08/11 00:05:13;;;;;;;8.65;7.72;;;13.60;99.90;;;;;;4972960;28;20027;-53
2021/08/11 00:07:38;;;;;;;8.70;7.75;;;13.60;99.90;;;;;;4972658;28;20049;-53
2021/08/11 00:10:06;;;;;;;9.25;8.35;;;13.60;99.90;;;;;;4972882;28;20015;-52
2021/08/11 00:12:31;;;;;;;11.02;9.00;;;13.50;99.90;;;;;;4972684;28;20685;-53
2021/08/11 00:14:57;;;;;;;11.45;8.93;;;13.50;99.90;;;;;;4972331;28;20023;-55
2021/08/11 00:17:23;;;;;;;9.90;8.68;;;13.50;99.90;;;;;;4972546;28;20077;-54
2021/08/11 00:19:49;;;;;;;8.70;7.80;;;13.50;99.90;;;;;;4971148;28;20042;-56
2021/08/11 00:22:15;;;;;;;10.32;8.13;;;13.50;99.90;;;;;;4972370;28;20073;-53
2021/08/11 00:24:41;;;;;;;9.88;8.48;;;13.50;99.90;;;;;;4972506;28;20031;-56
2021/08/11 00:27:07;;;;;;;9.40;8.43;;;13.50;99.90;;;;;;4972223;28;20035;-53
2021/08/11 00:29:34;;;;;;;9.77;8.40;;;13.40;99.90;;;;;;4972053;28;20022;-52
2021/08/11 00:32:00;;;;;;;10.15;8.57;;;13.50;99.90;;;;;;4972196;28;20027;-55
2021/08/11 00:34:27;;;;;;;9.48;7.82;;;13.40;99.90;;;;;;4969436;28;20602;-53
2021/08/11 00:36:53;;;;;;;9.30;8.40;;;13.40;99.90;;;;;;4972548;28;20125;-54
2021/08/11 00:39:19;;;;;;;10.50;8.27;;;13.40;99.90;;;;;;4973541;28;20019;-56
2021/08/11 00:41:44;;;;;;;9.13;8.13;;;13.40;99.90;;;;;;4973256;28;20034;-57
2021/08/11 00:44:13;;;;;;;12.48;9.27;;;13.40;99.90;;;;;;4970351;28;20031;-55
2021/08/11 00:46:45;;;;;;;10.00;8.00;;;13.30;99.90;;;;;;4967670;28;20047;-57
2021/08/11 00:49:15;;;;;;;9.98;8.43;;;13.30;99.90;;;;;;4971440;28;20018;-53
2021/08/11 00:51:41;;;;;;;8.75;7.57;;;13.30;99.90;;;;;;4968054;28;20101;-55
2021/08/11 00:54:08;;;;;;;9.02;7.68;;;13.30;99.90;;;;;;4970724;28;20126;-57
2021/08/11 00:56:36;;;;;;;10.40;8.80;;;13.20;99.90;;;;;;4971510;28;20514;-55
2021/08/11 00:59:06;;;;;;;9.88;7.50;;;13.20;99.90;;;;;;4970751;28;20175;-53
2021/08/11 01:01:32;;;;;;;10.50;8.18;;;13.20;99.90;;;;;;4984508;28;20153;-57
2021/08/11 01:04:00;;;;;;;9.13;8.13;;;13.20;99.90;;;;;;4969784;28;20066;-55
2021/08/11 01:06:26;;;;;;;8.65;7.68;;;13.10;99.90;;;;;;4971780;28;20089;-56
2021/08/11 01:08:55;;;;;;;9.18;8.13;;;13.10;99.90;;;;;;4971913;28;20049;-54
2021/08/11 01:11:25;;;;;;;8.88;7.78;;;13.10;99.90;;;;;;4972268;28;20021;-57
2021/08/11 01:13:51;;;;;;;10.60;7.93;;;13.10;99.90;;;;;;4968369;28;20081;-55
2021/08/11 01:16:17;;;;;;;10.32;8.13;;;13.10;99.90;;;;;;4972058;28;20514;-56
2021/08/11 01:18:43;;;;;;;9.68;8.65;;;13.10;99.90;;;;;;4971850;28;20051;-56
2021/08/11 01:21:18;;;;;;;11.95;9.50;;;13.10;99.90;;;;;;4972203;28;20054;-56
2021/08/11 01:24:05;;;;;;;9.88;8.75;;;13.00;99.90;;;;;;4971766;28;20085;-54
2021/08/11 01:27:01;;;;;;;10.45;9.38;;;13.00;99.90;;;;;;4965503;28;20023;-55
2021/08/11 01:29:47;;;;;;;17.35;9.27;;;13.00;99.90;;;;;;4971831;28;20097;-54
2021/08/11 01:32:46;;;;;;;11.43;9.25;;;13.00;99.90;;;;;;4972057;28;20389;-53
2021/08/11 01:35:15;;;;;;;8.60;7.78;;;13.00;99.90;;;;;;4969929;28;20581;-54
2021/08/11 01:37:42;;;;;;;9.73;8.77;;;13.00;99.90;;;;;;4971649;28;20493;-56
2021/08/11 01:40:11;;;;;;;11.02;8.75;;;12.90;99.90;;;;;;4971853;28;20042;-54
2021/08/11 01:42:40;;;;;;;10.10;8.75;;;12.90;99.90;;;;;;4970272;28;20141;-55
2021/08/11 01:45:16;;;;;;;9.18;8.20;;;12.90;99.90;;;;;;4968952;28;20030;-53
2021/08/11 01:47:49;;;;;;;10.00;8.98;;;12.90;99.90;;;;;;4969053;28;20026;-53
2021/08/11 01:50:18;;;;;;;12.80;8.90;;;12.90;99.90;;;;;;4969923;28;20687;-56
2021/08/11 01:52:45;;;;;;;10.38;8.45;;;12.90;99.90;;;;;;4971109;28;20038;-53
2021/08/11 01:55:12;;;;;;;12.13;9.30;;;12.80;99.90;;;;;;4971103;28;20102;-55
2021/08/11 01:57:42;;;;;;;11.63;9.57;;;12.80;99.90;;;;;;4971735;28;20438;-56
2021/08/11 02:00:08;;;;;;;10.73;9.00;;;12.80;99.90;;;;;;4971811;28;20694;-55
2021/08/11 02:02:37;;;;;;;10.48;8.80;;;12.80;99.90;;;;;;4969353;28;20065;-54
2021/08/11 02:05:04;;;;;;;10.18;9.13;;;12.80;99.90;;;;;;4970878;28;20027;-52
2021/08/11 02:07:29;;;;;;;11.90;8.65;;;12.70;99.90;;;;;;4970300;28;20041;-56
2021/08/11 02:09:55;;;;;;;13.65;10.65;;;12.80;99.90;;;;;;4970551;28;20465;-55
2021/08/11 02:12:21;;;;;;;9.57;8.57;;;12.70;99.90;;;;;;4970609;28;20027;-54
2021/08/11 02:14:47;;;;;;;10.30;8.88;;;12.70;99.90;;;;;;4970016;28;20061;-54
2021/08/11 02:17:13;;;;;;;12.68;9.93;;;12.70;99.90;;;;;;4970905;28;20031;-53
2021/08/11 02:19:38;;;;;;;12.50;9.90;;;12.70;99.90;;;;;;4970530;28;20217;-53
2021/08/11 02:22:04;;;;;;;11.38;8.32;;;12.70;99.90;;;;;;4970689;28;20035;-52
2021/08/11 02:24:29;;;;;;;11.32;9.45;;;12.70;99.90;;;;;;4970548;28;20033;-53
2021/08/11 02:27:01;;;;;;;10.18;9.15;;;12.70;99.90;;;;;;4970133;28;20027;-54
2021/08/11 02:29:42;;;;;;;10.40;8.57;;;12.70;99.90;;;;;;4970705;28;20528;-53
2021/08/11 02:32:24;;;;;;;10.20;9.10;;;12.70;99.90;;;;;;4969089;28;20547;-54
2021/08/11 02:35:27;;;;;;;10.25;8.88;;;12.60;99.90;;;;;;4969912;28;20401;-53
2021/08/11 02:38:02;;;;;;;13.05;9.82;;;12.60;99.90;;;;;;4967339;28;20027;-53
2021/08/11 02:40:35;;;;;;;14.73;9.52;;;12.60;99.90;;;;;;4970213;28;20504;-54
2021/08/11 02:43:21;;;;;;;14.15;10.95;;;12.60;99.90;;;;;;4970483;28;20031;-53
2021/08/11 02:45:53;;;;;;;12.80;10.20;;;12.50;99.90;;;;;;4969830;28;20053;-52
2021/08/11 02:48:20;;;;;;;12.23;9.57;;;12.60;99.90;;;;;;4963340;28;20050;-54
2021/08/11 02:50:47;;;;;;;11.73;9.90;;;12.60;99.90;;;;;;4970114;28;20015;-56
2021/08/11 02:53:17;;;;;;;14.70;10.90;;;12.60;99.90;;;;;;4969348;28;20022;-53
2021/08/11 02:55:43;;;;;;;15.75;10.38;;;12.60;99.90;;;;;;4969878;28;20062;-56
2021/08/11 02:58:10;;;;;;;14.85;10.85;;;12.60;99.90;;;;;;4970217;28;20600;-52
2021/08/11 03:00:36;;;;;;;12.85;11.43;;;12.70;99.90;;;;;;4969963;28;20019;-53
2021/08/11 03:03:03;;;;;;;13.95;10.55;;;12.70;99.90;;;;;;4969797;28;20440;-56
2021/08/11 03:05:29;;;;;;;13.75;11.35;;;12.60;99.90;;;;;;4969264;28;20018;-53
2021/08/11 03:07:55;;;;;;;14.07;10.77;;;12.60;99.90;;;;;;4969863;28;20532;-56
2021/08/11 03:10:22;;;;;;;14.70;11.95;;;12.60;99.90;;;;;;4970253;28;20025;-54
2021/08/11 03:12:48;;;;;;;14.07;11.50;;;12.60;99.90;;;;;;4969671;28;20593;-53
2021/08/11 03:15:15;;;;;;;13.35;11.40;;;12.60;99.90;;;;;;4967993;28;20680;-52
2021/08/11 03:17:41;;;;;;;12.93;11.40;;;12.60;99.90;;;;;;4969617;28;20042;-54
2021/08/11 03:20:07;;;;;;;13.52;11.88;;;12.50;99.90;;;;;;4969481;28;20030;-53
2021/08/11 03:22:33;;;;;;;13.48;11.50;;;12.50;99.90;;;;;;4969553;28;20019;-53
2021/08/11 03:25:00;;;;;;;12.45;10.35;;;12.50;99.90;;;;;;4967549;28;20046;-56
2021/08/11 03:27:25;;;;;;;14.18;11.05;;;12.50;99.90;;;;;;4969249;28;20600;-52
2021/08/11 03:29:51;;;;;;;13.05;11.10;;;12.50;99.90;;;;;;4967494;28;20174;-56
2021/08/11 03:32:16;;;;;;;13.52;10.50;;;12.50;99.90;;;;;;4969430;28;20050;-55
2021/08/11 03:34:42;;;;;;;14.70;11.75;;;12.40;99.90;;;;;;4969244;28;20073;-54
2021/08/11 03:37:08;;;;;;;14.63;11.57;;;12.40;99.90;;;;;;4969672;28;20110;-56
2021/08/11 03:39:33;;;;;;;13.65;11.95;;;12.40;99.90;;;;;;4969588;28;20481;-53
2021/08/11 03:41:59;;;;;;;15.20;11.25;;;12.40;99.90;;;;;;4969737;28;20485;-53
2021/08/11 03:44:25;;;;;;;14.38;11.30;;;12.40;99.90;;;;;;4969105;28;20023;-55
2021/08/11 03:46:50;;;;;;;16.98;13.43;;;12.50;99.90;;;;;;4968209;28;20082;-53
2021/08/11 03:49:19;;;;;;;13.98;10.93;;;12.50;99.90;;;;;;4969233;28;20366;-56
2021/08/11 03:51:44;;;;;;;13.25;11.30;;;12.50;99.90;;;;;;4969781;28;20011;-53
2021/08/11 03:54:10;;;;;;;17.08;11.63;;;12.50;99.90;;;;;;4968290;28;20030;-54
2021/08/11 03:56:36;;;;;;;16.55;12.30;;;12.50;99.90;;;;;;4990813;23;20046;-51
2021/08/11 03:59:01;;;;;;;20.23;13.07;;;12.50;99.90;;;;;;4968654;28;20031;-54
2021/08/11 04:01:27;;;;;;;18.20;12.82;;;12.50;99.90;;;;;;4969763;28;20022;-53
2021/08/11 04:03:52;;;;;;;19.65;13.43;;;12.50;99.90;;;;;;4969392;28;20027;-55
2021/08/11 04:06:18;;;;;;;17.02;13.43;;;12.50;99.90;;;;;;4968688;28;20081;-51
2021/08/11 04:08:43;;;;;;;18.05;13.05;;;12.60;99.90;;;;;;4968734;28;20027;-53
2021/08/11 04:11:09;;;;;;;16.77;13.73;;;12.60;99.90;;;;;;4968906;28;20022;-54
2021/08/11 04:13:34;;;;;;;17.17;12.93;;;12.60;99.90;;;;;;4973899;28;20018;-53
2021/08/11 04:16:00;;;;;;;21.30;14.75;;;12.60;99.90;;;;;;4968678;28;20401;-54
2021/08/11 04:18:26;;;;;;;21.83;14.90;;;12.60;99.90;;;;;;4968723;28;20019;-51
2021/08/11 04:20:51;;;;;;;17.77;14.38;;;12.60;99.90;;;;;;4968995;28;20018;-50
2021/08/11 04:23:17;;;;;;;20.08;14.70;;;12.70;99.90;;;;;;4969270;28;20078;-51
2021/08/11 04:25:42;;;;;;;19.65;14.70;;;12.70;99.90;;;;;;4968782;28;20023;-51
2021/08/11 04:28:09;;;;;;;19.08;13.77;;;12.70;99.90;;;;;;4969303;28;20038;-53
2021/08/11 04:30:35;;;;;;;19.73;14.68;;;12.70;99.90;;;;;;4970543;28;20019;-51
2021/08/11 04:33:01;;;;;;;17.10;13.15;;;12.70;99.90;;;;;;4972599;28;20477;-52
2021/08/11 04:35:27;;;;;;;17.90;15.00;;;12.70;99.90;;;;;;4970832;28;20019;-53
2021/08/11 04:37:52;;;;;;;17.45;14.02;;;12.80;99.90;;;;;;4972488;28;20034;-52
2021/08/11 04:40:18;;;;;;;23.08;14.55;;;12.70;99.90;;;;;;4971551;28;20378;-50
2021/08/11 04:42:44;;;;;;;17.73;13.40;;;12.80;99.90;;;;;;4960151;28;20031;-50
2021/08/11 04:45:10;;;;;;;19.25;13.35;;;12.80;99.90;;;;;;4970247;28;20106;-50
2021/08/11 04:47:36;;;;;;;16.45;12.70;;;12.80;99.90;;;;;;4972299;28;20031;-50
2021/08/11 04:50:03;;;;;;;18.38;12.88;;;12.80;99.90;;;;;;4972367;28;20116;-50
2021/08/11 04:52:29;;;;;;;16.38;11.93;;;12.80;99.90;;;;;;4972115;28;20019;-52
2021/08/11 04:54:54;;;;;;;15.43;12.15;;;12.80;99.90;;;;;;4970243;28;20094;-50
2021/08/11 04:57:20;;;;;;;14.95;11.93;;;12.80;99.90;;;;;;4971777;28;20038;-53
2021/08/11 04:59:45;;;;;;;17.00;13.43;;;12.80;99.90;;;;;;4971851;28;20106;-52
2021/08/11 05:02:11;;;;;;;17.83;12.38;;;12.80;99.90;;;;;;4971597;28;20046;-50
2021/08/11 05:04:37;;;;;;;16.85;11.98;;;12.80;99.90;;;;;;4971642;28;20102;-52
2021/08/11 05:07:03;;;;;;;16.75;12.90;;;12.90;99.90;;;;;;4981646;28;20027;-50
2021/08/11 05:09:31;;;;;;;16.05;12.68;;;12.90;99.90;;;;;;4969557;28;20050;-53
2021/08/11 05:11:56;;;;;;;16.05;12.32;;;12.90;99.90;;;;;;4986629;28;20106;-52
2021/08/11 05:14:22;;;;;;;16.55;11.95;;;12.90;99.90;;;;;;4971383;28;20459;-56
2021/08/11 05:16:47;;;;;;;16.10;12.70;;;12.90;99.90;;;;;;4971540;28;20389;-50
2021/08/11 05:19:13;;;;;;;17.88;11.65;;;13.00;99.90;;;;;;4971618;28;20649;-52
2021/08/11 05:21:38;;;;;;;16.92;13.10;;;13.00;99.90;;;;;;4955091;28;20425;-53
2021/08/11 05:24:04;;;;;;;17.48;12.88;;;13.10;99.90;;;;;;4955384;28;20038;-51
2021/08/11 05:26:30;;;;;;;17.85;13.25;;;13.10;99.90;;;;;;4953693;28;20115;-52
2021/08/11 05:28:56;;;;;;;17.20;13.63;;;13.10;99.90;;;;;;4953728;28;20023;-51
2021/08/11 05:31:21;;;;;;;17.45;12.40;;;13.20;99.90;;;;;;4956180;28;20607;-50
2021/08/11 05:33:47;;;;;;;21.95;13.52;;;13.20;99.90;;;;;;4967052;28;20045;-51
2021/08/11 05:36:13;;;;;;;18.13;13.50;;;13.20;99.90;;;;;;4971025;28;20375;-50
2021/08/11 05:38:39;;;;;;;18.92;13.15;;;13.30;99.90;;;;;;4970273;28;20047;-53
2021/08/11 05:41:05;;;;;;;17.38;12.80;;;13.40;99.90;;;;;;4970782;28;20106;-52
2021/08/11 05:43:30;;;;;;;15.88;11.80;;;13.40;99.90;;;;;;4970185;28;20494;-50
2021/08/11 05:45:56;;;;;;;20.02;12.98;;;13.50;99.90;;;;;;4970385;28;20153;-51
2021/08/11 05:48:24;;;;;;;17.50;12.95;;;13.50;99.90;;;;;;4971369;28;20098;-51
2021/08/11 05:50:50;;;;;;;16.70;12.70;;;13.50;99.90;;;;;;4970013;28;20022;-52
2021/08/11 05:53:16;;;;;;;15.98;13.10;;;13.60;99.90;;;;;;4971357;28;20053;-52
2021/08/11 05:55:42;;;;;;;20.92;15.02;;;13.70;99.90;;;;;;4970194;28;20034;-50
2021/08/11 05:58:11;;;;;;;23.52;13.90;;;13.70;99.90;;;;;;4970444;28;20027;-50
2021/08/11 06:00:38;;;;;;;18.88;12.82;;;13.70;99.90;;;;;;4971148;28;20022;-53
2021/08/11 06:03:04;;;;;;;17.58;13.25;;;13.70;99.90;;;;;;4971286;28;20026;-54
2021/08/11 06:05:30;;;;;;;17.40;13.13;;;13.80;99.90;;;;;;4969295;28;20049;-50
2021/08/11 06:07:55;;;;;;;18.45;12.88;;;13.90;99.90;;;;;;4969135;28;20509;-54
2021/08/11 06:10:21;;;;;;;15.48;12.13;;;13.90;99.90;;;;;;4970921;28;20019;-54
2021/08/11 06:12:51;;;;;;;16.88;11.93;;;13.90;99.90;;;;;;4970619;28;20098;-51
2021/08/11 06:15:17;;;;;;;15.43;11.73;;;14.00;99.90;;;;;;4969196;28;20114;-53
2021/08/11 06:17:47;;;;;;;17.52;12.15;;;14.10;99.90;;;;;;4970715;28;20543;-50
2021/08/11 06:20:14;;;;;;;16.98;12.85;;;14.10;99.90;;;;;;4971215;28;20113;-50
2021/08/11 06:22:41;;;;;;;20.75;13.48;;;14.20;99.90;;;;;;4970754;28;20033;-53
2021/08/11 06:25:07;;;;;;;16.63;11.82;;;14.30;99.90;;;;;;4968734;28;20031;-54
2021/08/11 06:27:33;;;;;;;16.90;11.48;;;14.40;99.90;;;;;;4970940;28;20027;-50
2021/08/11 06:29:59;;;;;;;18.65;12.13;;;14.50;99.90;;;;;;4970232;28;20085;-50
2021/08/11 06:32:24;;;;;;;13.77;11.73;;;14.60;99.90;;;;;;4970633;28;20027;-50
2021/08/11 06:34:50;;;;;;;18.20;12.82;;;14.60;99.90;;;;;;4968339;28;20049;-53
2021/08/11 06:37:15;;;;;;;14.52;11.90;;;14.70;99.90;;;;;;4970111;28;20269;-50
2021/08/11 06:39:41;;;;;;;17.20;11.75;;;14.90;99.90;;;;;;4970059;28;20023;-50
2021/08/11 06:42:06;;;;;;;13.60;11.13;;;14.90;99.90;;;;;;4969880;28;20026;-52
2021/08/11 06:44:32;;;;;;;14.43;12.07;;;15.00;99.90;;;;;;4969453;28;20393;-51
2021/08/11 06:46:58;;;;;;;14.80;11.65;;;15.20;99.90;;;;;;4969689;28;20134;-49
2021/08/11 06:49:23;;;;;;;14.95;11.43;;;15.30;99.90;;;;;;4970441;28;20481;-50
2021/08/11 06:51:49;;;;;;;13.93;10.57;;;15.40;99.90;;;;;;4969947;28;20031;-51
2021/08/11 06:54:14;;;;;;;14.63;11.93;;;15.50;99.90;;;;;;4967910;28;20023;-50
2021/08/11 06:56:40;;;;;;;13.68;10.70;;;15.70;99.90;;;;;;4964713;28;20035;-50
2021/08/11 06:59:06;;;;;;;13.15;10.80;;;15.80;99.90;;;;;;4968036;28;20090;-50
2021/08/11 07:01:32;;;;;;;16.02;10.52;;;15.90;99.90;;;;;;4969606;28;20045;-51
2021/08/11 07:03:58;;;;;;;12.27;9.48;;;16.10;99.90;;;;;;4969641;28;20042;-51
2021/08/11 07:06:23;;;;;;;11.77;10.15;;;16.20;99.90;;;;;;4969168;28;20075;-52
2021/08/11 07:08:49;;;;;;;9.95;8.88;;;16.40;99.90;;;;;;4963371;28;20034;-52
2021/08/11 07:11:15;;;;;;;11.73;9.50;;;16.50;99.90;;;;;;4968954;28;20031;-51
2021/08/11 07:13:40;;;;;;;12.10;9.30;;;16.70;99.90;;;;;;4969322;28;20032;-52
2021/08/11 07:16:06;;;;;;;9.85;7.97;;;16.80;99.90;;;;;;4967812;28;20049;-50
2021/08/11 07:18:31;;;;;;;9.75;8.15;;;17.00;99.90;;;;;;4969767;28;20027;-54
2021/08/11 07:20:58;;;;;;;13.50;8.73;;;17.10;99.90;;;;;;4968433;28;20019;-54
2021/08/11 07:23:24;;;;;;;10.43;8.30;;;17.30;99.90;;;;;;4969808;28;20057;-52
2021/08/11 07:25:49;;;;;;;9.65;7.40;;;17.40;99.90;;;;;;4967495;28;20066;-52
2021/08/11 07:28:15;;;;;;;8.43;7.57;;;17.50;99.90;;;;;;4967991;28;20081;-51
2021/08/11 07:30:42;;;;;;;8.80;7.75;;;17.70;99.90;;;;;;4968151;28;20061;-54
2021/08/11 07:33:09;;;;;;;10.73;7.55;;;17.80;99.90;;;;;;4969113;28;20022;-53
2021/08/11 07:35:38;;;;;;;8.93;7.18;;;18.00;99.90;;;;;;4968706;28;20109;-54
2021/08/11 07:38:06;;;;;;;9.48;7.90;;;18.10;99.90;;;;;;4966644;28;20524;-51
2021/08/11 07:40:33;;;;;;;9.90;7.80;;;18.30;99.90;;;;;;4952176;28;20035;-52
2021/08/11 07:43:00;;;;;;;8.60;5.68;;;18.40;99.90;;;;;;4977860;28;20051;-52
2021/08/11 07:45:26;;;;;;;8.93;6.47;;;18.60;99.90;;;;;;4968488;28;20596;-52
2021/08/11 07:47:54;;;;;;;9.27;6.30;;;18.70;99.90;;;;;;4970121;28;20058;-55
2021/08/11 07:50:22;;;;;;;11.68;7.25;;;18.90;99.90;;;;;;4969036;28;20010;-50
2021/08/11 07:52:47;;;;;;;7.50;6.28;;;19.00;99.90;;;;;;4969364;28;20019;-50
2021/08/11 07:55:15;;;;;;;9.25;5.82;;;19.20;99.90;;;;;;4967242;28;20465;-55
2021/08/11 07:57:40;;;;;;;9.57;6.03;;;19.30;99.90;;;;;;4969235;28;20033;-51
2021/08/11 08:00:08;;;;;;;9.18;5.93;;;19.30;99.90;;;;;;4969559;28;20035;-52
2021/08/11 08:02:33;;;;;;;7.05;6.35;;;19.50;99.90;;;;;;4966854;28;20058;-52
2021/08/11 08:05:01;;;;;;;9.65;6.07;;;19.80;99.90;;;;;;4969359;28;20058;-51
2021/08/11 08:07:27;;;;;;;8.65;5.28;;;20.00;99.90;;;;;;4971431;28;20625;-50
2021/08/11 08:09:52;;;;;;;7.57;4.85;;;20.10;99.90;;;;;;4973189;28;20118;-56
2021/08/11 08:12:18;;;;;;;6.18;5.00;;;20.20;99.90;;;;;;4972564;28;20102;-57
2021/08/11 08:14:43;;;;;;;6.15;4.90;;;20.20;99.90;;;;;;4972108;28;20042;-56
2021/08/11 08:17:09;;;;;;;5.82;5.00;;;20.10;99.90;;;;;;4972863;28;20027;-54
2021/08/11 08:19:34;;;;;;;6.68;5.05;;;19.80;99.90;;;;;;4972973;28;20065;-51
2021/08/11 08:22:00;;;;;;;8.50;4.50;;;19.70;99.90;;;;;;4971152;28;20058;-55
2021/08/11 08:24:26;;;;;;;5.90;5.30;;;19.80;99.90;;;;;;4970908;28;20043;-54
2021/08/11 08:26:51;;;;;;;5.65;4.70;;;20.10;99.90;;;;;;4972244;28;20030;-53
2021/08/11 08:29:17;;;;;;;6.63;4.93;;;20.30;99.90;;;;;;4972688;28;20551;-53
2021/08/11 08:31:42;;;;;;;5.50;5.00;;;20.50;99.90;;;;;;4961197;28;20031;-51
2021/08/11 08:34:08;;;;;;;7.07;4.40;;;20.60;99.90;;;;;;4970589;28;20420;-52
2021/08/11 08:36:34;;;;;;;6.05;4.47;;;20.50;99.90;;;;;;4969812;28;20018;-56
2021/08/11 08:39:00;;;;;;;8.00;4.82;;;20.70;99.90;;;;;;4971030;28;20512;-54
2021/08/11 08:41:26;;;;;;;6.03;4.40;;;20.90;99.90;;;;;;4970358;28;20054;-52
2021/08/11 08:43:51;;;;;;;4.63;4.13;;;21.10;99.90;;;;;;4970550;28;20030;-54
2021/08/11 08:46:20;;;;;;;8.90;5.00;;;21.30;99.90;;;;;;4970322;28;20042;-53
2021/08/11 08:48:46;;;;;;;6.65;4.45;;;21.50;99.90;;;;;;4970907;28;20046;-54
2021/08/11 08:51:13;;;;;;;5.93;4.35;;;21.60;99.90;;;;;;4970753;28;20065;-51
2021/08/11 08:53:41;;;;;;;10.30;4.95;;;21.80;99.90;;;;;;4972069;28;20022;-51
2021/08/11 08:56:07;;;;;;;4.82;3.95;;;21.90;99.90;;;;;;4971755;28;20085;-55
2021/08/11 08:58:33;;;;;;;6.72;4.18;;;22.10;99.90;;;;;;4972244;28;20030;-58
2021/08/11 09:00:58;;;;;;;6.40;4.22;;;22.30;99.90;;;;;;4971964;28;20034;-52
2021/08/11 09:03:24;;;;;;;8.30;4.43;;;22.30;99.90;;;;;;4970248;28;20018;-56
2021/08/11 09:05:49;;;;;;;3.92;3.60;;;22.20;99.90;;;;;;4971392;28;20416;-51
2021/08/11 09:08:15;;;;;;;5.82;3.95;;;22.10;99.90;;;;;;4971669;28;20039;-55
2021/08/11 09:10:41;;;;;;;4.10;3.65;;;22.10;99.90;;;;;;4971741;28;20022;-56
2021/08/11 09:13:33;;;;;;;4.20;3.65;;;21.80;99.90;;;;;;4971781;28;20168;-53
2021/08/11 09:16:05;;;;;;;6.70;4.18;;;21.70;99.90;;;;;;4968529;28;20039;-55
2021/08/11 09:18:30;;;;;;;5.45;3.97;;;21.90;99.90;;;;;;4971827;28;20038;-53
2021/08/11 09:20:59;;;;;;;5.70;4.07;;;21.90;99.90;;;;;;4971429;28;20027;-52
2021/08/11 09:23:36;;;;;;;5.63;4.22;;;21.90;99.90;;;;;;4969873;28;20489;-51
2021/08/11 09:26:04;;;;;;;6.60;3.95;;;22.00;99.90;;;;;;4970981;28;20030;-54
2021/08/11 09:28:32;;;;;;;6.93;4.32;;;22.30;99.90;;;;;;4971570;28;20026;-53
2021/08/11 09:30:59;;;;;;;5.18;3.58;;;22.50;99.90;;;;;;4971529;28;20170;-52
2021/08/11 09:33:25;;;;;;;6.40;3.58;;;22.80;99.90;;;;;;4971299;28;20070;-51
2021/08/11 09:35:52;;;;;;;5.10;3.60;;;22.90;99.90;;;;;;4971107;28;20047;-55
2021/08/11 09:38:18;;;;;;;6.60;3.95;;;23.20;99.90;;;;;;4969389;28;20018;-54
2021/08/11 09:40:44;;;;;;;5.05;3.78;;;23.40;99.90;;;;;;4971253;28;20532;-53
2021/08/11 09:43:15;;;;;;;8.10;4.00;;;23.50;99.90;;;;;;4970997;28;20023;-55
2021/08/11 09:45:48;;;;;;;8.45;3.45;;;23.30;99.90;;;;;;4970664;28;20437;-53
2021/08/11 09:48:22;;;;;;;4.70;3.50;;;23.40;99.90;;;;;;4970998;28;20027;-55
2021/08/11 09:50:51;;;;;;;4.95;3.13;;;23.40;99.90;;;;;;4971419;28;20067;-51
2021/08/11 09:53:32;;;;;;;3.55;3.22;;;23.50;99.90;;;;;;4969964;28;20029;-56
2021/08/11 09:56:07;;;;;;;4.78;3.80;;;23.60;99.90;;;;;;4969096;28;20077;-56
2021/08/11 09:58:32;;;;;;;5.70;3.53;;;23.50;99.90;;;;;;4982287;23;20441;-84
2021/08/11 10:00:58;;;;;;;4.78;3.38;;;23.30;99.90;;;;;;4972992;28;20093;-83
2021/08/11 10:03:24;;;;;;;5.40;3.70;;;23.40;99.90;;;;;;4979893;28;20026;-81
2021/08/11 10:05:52;;;;;;;3.75;3.45;;;23.50;99.90;;;;;;4981260;28;20729;-82
2021/08/11 10:08:29;;;;;;;4.22;3.47;;;23.60;99.90;;;;;;4986435;28;20030;-83
2021/08/11 10:10:55;;;;;;;6.47;4.05;;;23.60;99.90;;;;;;4992083;28;20113;-79
2021/08/11 10:13:22;;;;;;;5.97;3.67;;;23.50;99.90;;;;;;4982687;28;20042;-81
2021/08/11 10:15:48;;;;;;;3.65;3.35;;;23.50;99.90;;;;;;4984112;28;20085;-82
2021/08/11 10:18:21;;;;;;;3.28;2.92;;;23.60;99.90;;;;;;4987285;28;20092;-80
2021/08/11 10:20:48;;;;;;;6.70;3.47;;;23.60;99.90;;;;;;4990900;28;20029;-83
2021/08/11 10:23:18;;;;;;;3.85;3.20;;;23.70;99.90;;;;;;4988219;28;20018;-82
2021/08/11 10:25:44;;;;;;;4.00;2.83;;;23.70;99.90;;;;;;4989380;28;20023;-81
2021/08/11 10:28:10;;;;;;;5.82;3.08;;;23.70;99.90;;;;;;4981767;28;20026;-81
2021/08/11 10:30:37;;;;;;;4.93;3.17;;;23.60;99.90;;;;;;4983179;28;20380;-81
2021/08/11 10:33:04;;;;;;;3.17;2.60;;;23.50;99.90;;;;;;4982648;28;20023;-81
2021/08/11 10:35:30;;;;;;;5.20;2.88;;;23.20;99.90;;;;;;4987554;28;20145;-82
2021/08/11 10:37:59;;;;;;;5.00;3.17;;;22.80;99.90;;;;;;4991395;28;20498;-82
2021/08/11 10:40:25;;;;;;;3.95;2.60;;;22.70;99.90;;;;;;4984892;28;20022;-81
2021/08/11 10:42:58;;;;;;;4.68;3.10;;;22.50;99.90;;;;;;4990419;28;20033;-81
2021/08/11 10:45:25;;;;;;;4.82;2.50;;;22.60;99.90;;;;;;4977384;28;20077;-82
2021/08/11 10:47:52;;;;;;;4.13;2.72;;;22.70;99.90;;;;;;4987163;28;20022;-84
2021/08/11 10:50:21;;;;;;;4.00;2.60;;;22.70;99.90;;;;;;4981503;28;20019;-82
2021/08/11 10:53:05;;;;;;;2.78;2.50;;;22.90;99.90;;;;;;4992659;28;20018;-80
2021/08/11 10:55:42;;;;;;;4.28;2.70;;;22.90;99.90;;;;;;4988607;28;20594;-81
2021/08/11 10:58:08;;;;;;;3.92;2.88;;;22.80;99.90;;;;;;4986570;28;20218;-80
2021/08/11 11:00:40;;;;;;;3.88;2.42;;;22.70;99.90;;;;;;4981963;28;20018;-81
2021/08/11 11:03:06;;;;;;;4.50;2.90;;;22.60;99.90;;;;;;4986371;28;20045;-81
2021/08/11 11:05:33;;;;;;;3.72;2.55;;;22.40;99.90;;;;;;4982190;28;20026;-80
2021/08/11 11:08:11;;;;;;;3.38;2.47;;;22.30;99.90;;;;;;4989122;28;20026;-83
2021/08/11 11:10:44;;;;;;;4.30;2.55;;;22.30;99.90;;;;;;4991387;28;20021;-81
2021/08/11 11:13:32;;;;;;;4.45;2.30;;;22.50;99.90;;;;;;4988804;28;20023;-82
2021/08/11 11:15:59;;;;;;;4.03;2.33;;;22.80;99.90;;;;;;4987620;28;20024;-81
2021/08/11 11:18:25;;;;;;;3.35;2.15;;;22.90;99.90;;;;;;4988927;28;20038;-83
2021/08/11 11:20:56;;;;;;;4.10;2.38;;;23.10;99.90;;;;;;4989287;28;20037;-81
2021/08/11 11:23:39;;;;;;;3.22;2.45;;;23.10;99.90;;;;;;4981347;28;20018;-81
2021/08/11 11:26:12;;;;;;;3.15;2.03;;;23.20;99.90;;;;;;4985043;28;20117;-81
2021/08/11 11:28:56;;;;;;;4.43;2.33;;;23.20;99.90;;;;;;4983210;28;20061;-81
2021/08/11 11:31:46;;;;;;;3.88;2.20;;;23.30;99.90;;;;;;5006668;28;20052;-81
2021/08/11 11:34:32;;;;;;;2.78;2.47;;;23.30;99.90;;;;;;4987662;28;20445;-83
2021/08/11 11:36:58;;;;;;;;;;;23.00;99.90;;;;;;4978868;28;20033;-83
2021/08/11 11:39:27;;;;;;;6.07;3.15;;;23.00;99.90;;;;;;4986402;28;19992;-83
2021/08/11 11:42:12;;;;;;;6.07;2.45;;;23.00;99.90;;;;;;4987781;28;20071;-82
2021/08/11 11:44:47;;;;;;;4.00;2.10;;;23.10;99.90;;;;;;4987350;28;20057;-83
2021/08/11 11:47:15;;;;;;;;;;;23.30;99.90;;;;;;4990124;28;20034;-82
2021/08/11 11:49:41;;;;;;;3.65;2.95;;;23.40;99.90;;;;;;4981655;28;19953;-84
2021/08/11 11:52:18;;;;;;;4.47;2.53;;;23.50;99.90;;;;;;4991935;28;20505;-81
2021/08/11 11:54:46;;;;;;;3.25;2.40;;;23.40;99.90;;;;;;4985438;28;20046;-83
2021/08/11 11:57:13;;;;;;;2.65;2.13;;;23.50;99.90;;;;;;4991357;28;20030;-83
2021/08/11 11:59:49;;;;;;;4.20;2.55;;;23.70;99.90;;;;;;4987624;28;20433;-83
2021/08/11 12:02:23;;;;;;;3.45;2.83;;;23.80;99.90;;;;;;4982857;28;20018;-82
2021/08/11 12:04:59;;;;;;;2.20;2.00;;;24.00;99.90;;;;;;4985054;28;20057;-82
2021/08/11 12:07:30;;;;;;;5.00;2.67;;;24.10;99.90;;;;;;4980963;28;20033;-82
2021/08/11 12:09:56;;;;;;;4.50;2.53;;;24.10;99.90;;;;;;4983927;28;20049;-82
2021/08/11 12:12:22;;;;;;;2.13;1.92;;;24.10;99.90;;;;;;4985951;28;20359;-81
2021/08/11 12:14:48;;;;;;;5.05;2.25;;;24.20;99.90;;;;;;4984330;28;20102;-82
2021/08/11 12:17:30;;;;;;;4.70;2.17;;;24.20;99.90;;;;;;4984553;28;20018;-83
2021/08/11 12:19:59;;;;;;;4.28;2.22;;;24.20;99.90;;;;;;4989690;28;20022;-81
2021/08/11 12:22:33;;;;;;;3.15;2.33;;;24.20;99.90;;;;;;4981235;28;20097;-83
2021/08/11 12:24:59;;;;;;;3.15;2.30;;;24.20;99.90;;;;;;4988981;28;20027;-82
2021/08/11 12:27:25;;;;;;;2.83;1.90;;;24.10;99.80;;;;;;4988357;28;20061;-82
2021/08/11 12:30:13;;;;;;;2.97;2.30;;;24.10;99.90;;;;;;4982591;28;20050;-82
2021/08/11 12:32:39;;;;;;;2.97;2.03;;;24.20;99.90;;;;;;4980771;28;20085;-82
2021/08/11 12:35:05;;;;;;;3.22;2.30;;;24.20;99.90;;;;;;4984341;28;20637;-81
2021/08/11 12:37:41;;;;;;;5.03;2.50;;;24.30;99.90;;;;;;4984836;28;20027;-81
2021/08/11 12:40:08;;;;;;;3.58;2.55;;;24.30;99.90;;;;;;4983623;28;20022;-81
2021/08/11 12:42:52;;;;;;;5.00;2.65;;;24.20;99.90;;;;;;4981105;28;20584;-82